sensor_id;sensor_type;location;lat;lon;timestamp;pressure;altitude;pressure_sealevel;temperature;humidity
53514;BME280;39768;54.148;12.174;2022-09-09T00:00:50;100733.66;;;18.96;100.00
53514;BME280;39768;54.148;12.174;2022-09-09T00:05:00;100738.50;;;19.07;100.00
53514;BME280;39768;54.148;12.174;2022-09-09T00:09:19;100743.34;;;19.18;100.00
53514;BME280;39768;54.148;12.174;2022-09-09T00:13:27;100738.75;;;18.84;100.00
53514;BME280;39768;54.148;12.174;2022-09-09T00:26:24;100735.84;;;18.70;100.00
53514;BME280;39768;54.148;12.174;2022-09-09T00:30:34;100732.34;;;18.67;100.00
53514;BME280;39768;54.148;12.174;2022-09-09T00:34:42;100744.66;;;18.53;100.00
53514;BME280;39768;54.148;12.174;2022-09-09T00:38:48;100735.69;;;18.73;100.00
53514;BME280;39768;54.148;12.174;2022-09-09T00:43:04;100736.69;;;18.70;100.00
53514;BME280;39768;54.148;12.174;2022-09-09T00:47:33;100738.81;;;18.63;100.00
53514;BME280;39768;54.148;12.174;2022-09-09T00:51:47;100749.44;;;18.46;100.00
53514;BME280;39768;54.148;12.174;2022-09-09T00:56:14;100743.81;;;19.09;100.00
53514;BME280;39768;54.148;12.174;2022-09-09T01:00:24;100743.41;;;18.80;100.00
53514;BME280;39768;54.148;12.174;2022-09-09T01:04:32;100726.81;;;18.89;100.00
53514;BME280;39768;54.148;12.174;2022-09-09T01:09:10;100740.91;;;18.76;100.00
53514;BME280;39768;54.148;12.174;2022-09-09T01:13:24;100739.78;;;19.17;100.00
53514;BME280;39768;54.148;12.174;2022-09-09T01:17:31;100752.19;;;19.38;100.00
53514;BME280;39768;54.148;12.174;2022-09-09T01:21:50;100751.06;;;19.25;100.00
53514;BME280;39768;54.148;12.174;2022-09-09T01:26:18;100748.75;;;19.54;100.00
53514;BME280;39768;54.148;12.174;2022-09-09T01:30:21;100756.34;;;19.63;100.00
53514;BME280;39768;54.148;12.174;2022-09-09T01:34:26;100762.53;;;19.65;100.00
53514;BME280;39768;54.148;12.174;2022-09-09T01:38:31;100770.41;;;19.69;100.00
53514;BME280;39768;54.148;12.174;2022-09-09T01:42:34;100767.47;;;19.57;100.00
53514;BME280;39768;54.148;12.174;2022-09-09T01:46:36;100781.09;;;19.71;100.00
53514;BME280;39768;54.148;12.174;2022-09-09T01:50:39;100780.38;;;19.49;100.00
53514;BME280;39768;54.148;12.174;2022-09-09T01:54:41;100782.09;;;19.32;100.00
53514;BME280;39768;54.148;12.174;2022-09-09T01:58:57;100776.63;;;19.34;100.00
53514;BME280;39768;54.148;12.174;2022-09-09T02:03:11;100772.19;;;18.97;100.00
53514;BME280;39768;54.148;12.174;2022-09-09T02:07:40;100763.25;;;18.96;100.00
53514;BME280;39768;54.148;12.174;2022-09-09T02:12:14;100764.66;;;19.22;100.00
53514;BME280;39768;54.148;12.174;2022-09-09T02:16:31;100770.50;;;18.94;100.00
53514;BME280;39768;54.148;12.174;2022-09-09T02:20:37;100781.59;;;19.24;100.00
53514;BME280;39768;54.148;12.174;2022-09-09T02:24:39;100782.50;;;19.06;100.00
53514;BME280;39768;54.148;12.174;2022-09-09T02:28:49;100781.41;;;19.10;100.00
53514;BME280;39768;54.148;12.174;2022-09-09T02:32:54;100784.34;;;19.42;100.00
53514;BME280;39768;54.148;12.174;2022-09-09T02:37:17;100786.25;;;19.21;100.00
53514;BME280;39768;54.148;12.174;2022-09-09T02:41:27;100782.00;;;19.34;100.00
53514;BME280;39768;54.148;12.174;2022-09-09T02:46:09;100775.63;;;19.36;100.00
53514;BME280;39768;54.148;12.174;2022-09-09T02:50:19;100775.31;;;19.43;100.00
53514;BME280;39768;54.148;12.174;2022-09-09T02:54:32;100776.88;;;19.47;100.00
53514;BME280;39768;54.148;12.174;2022-09-09T02:58:39;100782.56;;;19.59;100.00
53514;BME280;39768;54.148;12.174;2022-09-09T03:02:41;100771.19;;;19.71;100.00
53514;BME280;39768;54.148;12.174;2022-09-09T03:06:43;100771.72;;;19.78;100.00
53514;BME280;39768;54.148;12.174;2022-09-09T03:10:54;100775.91;;;19.30;100.00
53514;BME280;39768;54.148;12.174;2022-09-09T03:14:58;100772.88;;;19.00;100.00
53514;BME280;39768;54.148;12.174;2022-09-09T03:19:01;100778.44;;;18.79;100.00
53514;BME280;39768;54.148;12.174;2022-09-09T03:23:03;100774.81;;;19.34;100.00
53514;BME280;39768;54.148;12.174;2022-09-09T03:27:05;100774.75;;;19.17;100.00
53514;BME280;39768;54.148;12.174;2022-09-09T03:31:10;100790.03;;;19.35;100.00
53514;BME280;39768;54.148;12.174;2022-09-09T03:35:20;100786.72;;;19.48;100.00
53514;BME280;39768;54.148;12.174;2022-09-09T03:39:22;100780.19;;;19.34;100.00
53514;BME280;39768;54.148;12.174;2022-09-09T03:43:25;100790.59;;;19.42;100.00
53514;BME280;39768;54.148;12.174;2022-09-09T03:47:27;100789.38;;;19.49;100.00
53514;BME280;39768;54.148;12.174;2022-09-09T03:51:35;100794.72;;;19.13;100.00
53514;BME280;39768;54.148;12.174;2022-09-09T03:55:38;100784.50;;;19.38;100.00
53514;BME280;39768;54.148;12.174;2022-09-09T03:59:40;100791.09;;;19.14;100.00
53514;BME280;39768;54.148;12.174;2022-09-09T04:03:41;100791.50;;;19.05;100.00
53514;BME280;39768;54.148;12.174;2022-09-09T04:07:43;100795.13;;;19.04;100.00
53514;BME280;39768;54.148;12.174;2022-09-09T04:11:45;100803.06;;;19.26;100.00
53514;BME280;39768;54.148;12.174;2022-09-09T04:15:56;100805.72;;;19.45;100.00
53514;BME280;39768;54.148;12.174;2022-09-09T04:19:58;100809.69;;;19.19;100.00
53514;BME280;39768;54.148;12.174;2022-09-09T04:24:00;100810.47;;;19.21;100.00
53514;BME280;39768;54.148;12.174;2022-09-09T04:28:02;100816.19;;;18.96;100.00
53514;BME280;39768;54.148;12.174;2022-09-09T04:32:04;100816.66;;;18.85;100.00
53514;BME280;39768;54.148;12.174;2022-09-09T04:36:07;100815.78;;;18.66;100.00
53514;BME280;39768;54.148;12.174;2022-09-09T04:40:09;100814.19;;;19.18;100.00
53514;BME280;39768;54.148;12.174;2022-09-09T04:44:11;100815.50;;;18.91;100.00
53514;BME280;39768;54.148;12.174;2022-09-09T04:48:13;100816.25;;;19.13;100.00
53514;BME280;39768;54.148;12.174;2022-09-09T04:52:15;100810.34;;;19.24;100.00
53514;BME280;39768;54.148;12.174;2022-09-09T04:56:18;100824.72;;;19.42;100.00
53514;BME280;39768;54.148;12.174;2022-09-09T05:00:32;100836.84;;;18.75;100.00
53514;BME280;39768;54.148;12.174;2022-09-09T05:04:36;100837.72;;;18.76;100.00
53514;BME280;39768;54.148;12.174;2022-09-09T05:08:39;100833.47;;;18.90;100.00
53514;BME280;39768;54.148;12.174;2022-09-09T05:12:42;100837.31;;;19.03;100.00
53514;BME280;39768;54.148;12.174;2022-09-09T05:16:44;100829.34;;;18.43;100.00
53514;BME280;39768;54.148;12.174;2022-09-09T05:20:46;100836.28;;;18.87;100.00
53514;BME280;39768;54.148;12.174;2022-09-09T05:24:49;100841.00;;;18.63;100.00
53514;BME280;39768;54.148;12.174;2022-09-09T05:28:52;100840.53;;;19.12;100.00
53514;BME280;39768;54.148;12.174;2022-09-09T05:32:57;100856.31;;;19.19;100.00
53514;BME280;39768;54.148;12.174;2022-09-09T05:36:59;100859.09;;;18.99;100.00
53514;BME280;39768;54.148;12.174;2022-09-09T05:41:02;100854.63;;;19.17;100.00
53514;BME280;39768;54.148;12.174;2022-09-09T05:45:06;100847.66;;;18.94;100.00
53514;BME280;39768;54.148;12.174;2022-09-09T05:49:09;100848.06;;;19.60;100.00
53514;BME280;39768;54.148;12.174;2022-09-09T05:53:12;100842.91;;;19.18;100.00
53514;BME280;39768;54.148;12.174;2022-09-09T05:57:15;100847.47;;;19.89;100.00
53514;BME280;39768;54.148;12.174;2022-09-09T06:01:29;100853.44;;;19.79;100.00
53514;BME280;39768;54.148;12.174;2022-09-09T06:05:32;100853.13;;;19.85;100.00
53514;BME280;39768;54.148;12.174;2022-09-09T06:09:35;100850.72;;;19.79;100.00
53514;BME280;39768;54.148;12.174;2022-09-09T06:13:36;100867.19;;;20.26;100.00
53514;BME280;39768;54.148;12.174;2022-09-09T06:17:40;100867.84;;;19.78;100.00
53514;BME280;39768;54.148;12.174;2022-09-09T06:21:43;100872.56;;;19.55;100.00
53514;BME280;39768;54.148;12.174;2022-09-09T06:25:46;100876.84;;;19.41;100.00
53514;BME280;39768;54.148;12.174;2022-09-09T06:29:48;100882.06;;;19.25;100.00
53514;BME280;39768;54.148;12.174;2022-09-09T06:33:52;100881.59;;;20.07;100.00
53514;BME280;39768;54.148;12.174;2022-09-09T06:37:55;100883.44;;;19.33;100.00
53514;BME280;39768;54.148;12.174;2022-09-09T06:41:57;100877.19;;;19.14;100.00
53514;BME280;39768;54.148;12.174;2022-09-09T06:46:19;100883.34;;;20.08;100.00
53514;BME280;39768;54.148;12.174;2022-09-09T06:50:21;100881.44;;;20.11;100.00
53514;BME280;39768;54.148;12.174;2022-09-09T06:54:24;100882.09;;;20.16;100.00
53514;BME280;39768;54.148;12.174;2022-09-09T06:58:27;100886.69;;;20.48;100.00
53514;BME280;39768;54.148;12.174;2022-09-09T07:02:32;100885.72;;;19.97;100.00
53514;BME280;39768;54.148;12.174;2022-09-09T07:06:45;100890.63;;;20.06;100.00
53514;BME280;39768;54.148;12.174;2022-09-09T07:10:52;100888.22;;;20.54;100.00
53514;BME280;39768;54.148;12.174;2022-09-09T07:14:57;100891.78;;;20.37;100.00
53514;BME280;39768;54.148;12.174;2022-09-09T07:18:58;100909.47;;;20.60;100.00
53514;BME280;39768;54.148;12.174;2022-09-09T07:23:02;100917.16;;;20.50;100.00
53514;BME280;39768;54.148;12.174;2022-09-09T07:27:04;100920.53;;;20.19;100.00
53514;BME280;39768;54.148;12.174;2022-09-09T07:31:13;100923.09;;;19.86;100.00
53514;BME280;39768;54.148;12.174;2022-09-09T07:35:15;100925.03;;;20.19;100.00
53514;BME280;39768;54.148;12.174;2022-09-09T07:39:16;100916.25;;;19.79;100.00
53514;BME280;39768;54.148;12.174;2022-09-09T07:43:26;100920.34;;;20.05;100.00
53514;BME280;39768;54.148;12.174;2022-09-09T07:47:28;100932.72;;;20.62;100.00
53514;BME280;39768;54.148;12.174;2022-09-09T07:51:33;100923.72;;;19.91;100.00
53514;BME280;39768;54.148;12.174;2022-09-09T07:55:35;100930.53;;;20.34;100.00
53514;BME280;39768;54.148;12.174;2022-09-09T07:59:36;100928.94;;;20.13;100.00
53514;BME280;39768;54.148;12.174;2022-09-09T08:03:39;100931.22;;;20.74;100.00
53514;BME280;39768;54.148;12.174;2022-09-09T08:07:40;100936.53;;;20.58;100.00
53514;BME280;39768;54.148;12.174;2022-09-09T08:11:42;100937.31;;;21.10;100.00
53514;BME280;39768;54.148;12.174;2022-09-09T08:15:45;100942.94;;;20.56;100.00
53514;BME280;39768;54.148;12.174;2022-09-09T08:19:47;100942.19;;;20.35;100.00
53514;BME280;39768;54.148;12.174;2022-09-09T08:23:55;100939.16;;;20.77;100.00
53514;BME280;39768;54.148;12.174;2022-09-09T08:27:58;100948.75;;;21.16;100.00
53514;BME280;39768;54.148;12.174;2022-09-09T08:32:00;100953.97;;;20.68;100.00
53514;BME280;39768;54.148;12.174;2022-09-09T08:36:04;100954.75;;;20.36;100.00
53514;BME280;39768;54.148;12.174;2022-09-09T08:40:27;100961.69;;;20.23;100.00
53514;BME280;39768;54.148;12.174;2022-09-09T08:48:46;100974.69;;;20.15;100.00
53514;BME280;39768;54.148;12.174;2022-09-09T08:57:21;100969.78;;;21.26;100.00
53514;BME280;39768;54.148;12.174;2022-09-09T09:01:38;100976.88;;;21.11;100.00
53514;BME280;39768;54.148;12.174;2022-09-09T09:10:07;100975.19;;;21.59;100.00
53514;BME280;39768;54.148;12.174;2022-09-09T09:14:35;100987.22;;;21.85;100.00
53514;BME280;39768;54.148;12.174;2022-09-09T09:18:40;100990.19;;;21.65;100.00
53514;BME280;39768;54.148;12.174;2022-09-09T09:22:49;100986.75;;;21.45;100.00
53514;BME280;39768;54.148;12.174;2022-09-09T09:26:53;100983.38;;;21.89;100.00
53514;BME280;39768;54.148;12.174;2022-09-09T09:30:59;100978.75;;;21.75;100.00
53514;BME280;39768;54.148;12.174;2022-09-09T09:35:10;100983.81;;;21.50;100.00
53514;BME280;39768;54.148;12.174;2022-09-09T09:39:31;100987.03;;;21.72;100.00
53514;BME280;39768;54.148;12.174;2022-09-09T09:43:53;100978.00;;;22.21;100.00
53514;BME280;39768;54.148;12.174;2022-09-09T09:52:17;100972.88;;;22.76;100.00
53514;BME280;39768;54.148;12.174;2022-09-09T09:56:28;100977.88;;;22.83;100.00
53514;BME280;39768;54.148;12.174;2022-09-09T10:00:32;100966.78;;;23.16;100.00
53514;BME280;39768;54.148;12.174;2022-09-09T10:04:39;100969.09;;;23.23;100.00
53514;BME280;39768;54.148;12.174;2022-09-09T10:08:46;100959.03;;;23.81;93.44
53514;BME280;39768;54.148;12.174;2022-09-09T10:17:15;100980.22;;;23.32;100.00
53514;BME280;39768;54.148;12.174;2022-09-09T10:38:14;100959.03;;;24.62;86.15
53514;BME280;39768;54.148;12.174;2022-09-09T10:42:18;100965.47;;;23.93;94.72
53514;BME280;39768;54.148;12.174;2022-09-09T10:46:52;100969.94;;;24.21;90.74
53514;BME280;39768;54.148;12.174;2022-09-09T10:55:28;100966.25;;;24.49;92.82
53514;BME280;39768;54.148;12.174;2022-09-09T10:59:38;100974.34;;;24.23;93.01
53514;BME280;39768;54.148;12.174;2022-09-09T11:03:43;100978.00;;;24.49;89.06
53514;BME280;39768;54.148;12.174;2022-09-09T11:07:55;100982.91;;;25.47;87.47
53514;BME280;39768;54.148;12.174;2022-09-09T11:12:00;100979.97;;;25.25;82.62
53514;BME280;39768;54.148;12.174;2022-09-09T11:20:14;100980.34;;;25.95;77.95
53514;BME280;39768;54.148;12.174;2022-09-09T11:24:28;100999.88;;;25.63;77.29
53514;BME280;39768;54.148;12.174;2022-09-09T11:37:28;100999.88;;;24.60;83.16
53514;BME280;39768;54.148;12.174;2022-09-09T11:41:35;100993.34;;;25.28;82.03
53514;BME280;39768;54.148;12.174;2022-09-09T11:45:40;101003.78;;;24.69;90.38
53514;BME280;39768;54.148;12.174;2022-09-09T11:49:43;100995.34;;;24.86;89.34
53514;BME280;39768;54.148;12.174;2022-09-09T11:58:36;100994.97;;;25.81;86.54
53514;BME280;39768;54.148;12.174;2022-09-09T12:02:48;100995.84;;;25.31;82.87
53514;BME280;39768;54.148;12.174;2022-09-09T12:06:54;100991.94;;;25.73;81.38
53514;BME280;39768;54.148;12.174;2022-09-09T12:10:58;100988.25;;;25.36;81.39
53514;BME280;39768;54.148;12.174;2022-09-09T12:23:27;100982.59;;;25.26;80.55
53514;BME280;39768;54.148;12.174;2022-09-09T12:27:40;100983.81;;;25.22;79.96
53514;BME280;39768;54.148;12.174;2022-09-09T12:32:04;100988.47;;;25.33;81.21
53514;BME280;39768;54.148;12.174;2022-09-09T12:36:11;100974.28;;;24.77;82.41
53514;BME280;39768;54.148;12.174;2022-09-09T12:40:22;100970.94;;;24.47;84.42
53514;BME280;39768;54.148;12.174;2022-09-09T12:44:25;100977.81;;;25.05;82.46
53514;BME280;39768;54.148;12.174;2022-09-09T12:48:35;100979.97;;;25.38;86.14
53514;BME280;39768;54.148;12.174;2022-09-09T12:52:38;100987.06;;;25.15;90.76
53514;BME280;39768;54.148;12.174;2022-09-09T12:56:45;100982.16;;;25.20;93.22
53514;BME280;39768;54.148;12.174;2022-09-09T13:00:52;100976.50;;;25.23;92.25
53514;BME280;39768;54.148;12.174;2022-09-09T13:05:06;100973.88;;;25.09;96.18
53514;BME280;39768;54.148;12.174;2022-09-09T13:09:14;100960.31;;;25.34;94.42
53514;BME280;39768;54.148;12.174;2022-09-09T13:13:40;100966.03;;;24.91;100.00
53514;BME280;39768;54.148;12.174;2022-09-09T13:17:42;100964.84;;;24.16;100.00
53514;BME280;39768;54.148;12.174;2022-09-09T13:21:43;100971.16;;;24.44;100.00
53514;BME280;39768;54.148;12.174;2022-09-09T13:26:00;100967.94;;;24.10;100.00
53514;BME280;39768;54.148;12.174;2022-09-09T13:30:20;100956.16;;;24.38;100.00
53514;BME280;39768;54.148;12.174;2022-09-09T13:34:32;100967.88;;;24.39;100.00
53514;BME280;39768;54.148;12.174;2022-09-09T13:38:40;100956.91;;;24.13;100.00
53514;BME280;39768;54.148;12.174;2022-09-09T13:42:42;100952.28;;;24.55;98.96
53514;BME280;39768;54.148;12.174;2022-09-09T13:46:44;100955.28;;;24.38;100.00
53514;BME280;39768;54.148;12.174;2022-09-09T13:50:54;100963.00;;;24.44;100.00
53514;BME280;39768;54.148;12.174;2022-09-09T13:54:56;100957.88;;;24.12;100.00
53514;BME280;39768;54.148;12.174;2022-09-09T13:58:59;100951.47;;;23.86;100.00
53514;BME280;39768;54.148;12.174;2022-09-09T14:03:00;100948.94;;;23.83;100.00
53514;BME280;39768;54.148;12.174;2022-09-09T14:07:05;100961.94;;;23.36;100.00
53514;BME280;39768;54.148;12.174;2022-09-09T14:11:11;100968.59;;;23.02;100.00
53514;BME280;39768;54.148;12.174;2022-09-09T14:15:13;100959.75;;;23.14;100.00
53514;BME280;39768;54.148;12.174;2022-09-09T14:19:15;100985.31;;;22.64;100.00
53514;BME280;39768;54.148;12.174;2022-09-09T14:23:17;100996.41;;;22.14;100.00
53514;BME280;39768;54.148;12.174;2022-09-09T14:27:18;100986.94;;;22.52;100.00
53514;BME280;39768;54.148;12.174;2022-09-09T14:31:20;100991.53;;;22.21;100.00
53514;BME280;39768;54.148;12.174;2022-09-09T14:35:22;100977.38;;;21.84;100.00
53514;BME280;39768;54.148;12.174;2022-09-09T14:39:23;100972.50;;;21.75;98.54
53514;BME280;39768;54.148;12.174;2022-09-09T14:43:25;100961.34;;;21.81;93.35
53514;BME280;39768;54.148;12.174;2022-09-09T14:47:28;100964.22;;;21.12;95.64
53514;BME280;39768;54.148;12.174;2022-09-09T14:51:31;100954.84;;;21.52;93.13
53514;BME280;39768;54.148;12.174;2022-09-09T14:55:33;100956.34;;;21.58;96.11
53514;BME280;39768;54.148;12.174;2022-09-09T14:59:34;100953.56;;;21.75;95.68
53514;BME280;39768;54.148;12.174;2022-09-09T15:03:37;100951.47;;;21.49;94.53
53514;BME280;39768;54.148;12.174;2022-09-09T15:07:38;100955.34;;;20.77;98.73
53514;BME280;39768;54.148;12.174;2022-09-09T15:11:40;100952.41;;;21.15;99.33
53514;BME280;39768;54.148;12.174;2022-09-09T15:15:42;100945.22;;;21.95;100.00
53514;BME280;39768;54.148;12.174;2022-09-09T15:19:44;100937.69;;;22.16;100.00
53514;BME280;39768;54.148;12.174;2022-09-09T15:23:46;100944.16;;;22.13;100.00
53514;BME280;39768;54.148;12.174;2022-09-09T15:27:48;100958.63;;;22.12;100.00
53514;BME280;39768;54.148;12.174;2022-09-09T15:31:50;100946.16;;;22.26;100.00
53514;BME280;39768;54.148;12.174;2022-09-09T15:35:51;100953.50;;;22.24;100.00
53514;BME280;39768;54.148;12.174;2022-09-09T15:39:53;100956.78;;;22.29;100.00
53514;BME280;39768;54.148;12.174;2022-09-09T15:43:56;100964.53;;;22.35;100.00
53514;BME280;39768;54.148;12.174;2022-09-09T15:48:01;100952.88;;;21.87;100.00
53514;BME280;39768;54.148;12.174;2022-09-09T15:52:03;100964.06;;;21.15;100.00
53514;BME280;39768;54.148;12.174;2022-09-09T15:56:05;100967.34;;;22.17;100.00
53514;BME280;39768;54.148;12.174;2022-09-09T16:00:08;100973.72;;;22.16;100.00
53514;BME280;39768;54.148;12.174;2022-09-09T16:04:10;100969.78;;;21.75;100.00
53514;BME280;39768;54.148;12.174;2022-09-09T16:08:11;100970.13;;;21.69;100.00
53514;BME280;39768;54.148;12.174;2022-09-09T16:12:14;100960.56;;;21.95;100.00
53514;BME280;39768;54.148;12.174;2022-09-09T16:16:17;100968.59;;;22.42;100.00
53514;BME280;39768;54.148;12.174;2022-09-09T16:20:20;100977.81;;;22.39;100.00
53514;BME280;39768;54.148;12.174;2022-09-09T16:24:22;100968.13;;;22.65;100.00
53514;BME280;39768;54.148;12.174;2022-09-09T16:28:24;100966.13;;;21.76;100.00
53514;BME280;39768;54.148;12.174;2022-09-09T16:32:26;100958.56;;;20.84;100.00
53514;BME280;39768;54.148;12.174;2022-09-09T16:36:29;100944.72;;;21.07;100.00
53514;BME280;39768;54.148;12.174;2022-09-09T16:40:33;100947.59;;;21.04;100.00
53514;BME280;39768;54.148;12.174;2022-09-09T16:44:36;100958.31;;;21.05;100.00
53514;BME280;39768;54.148;12.174;2022-09-09T16:48:37;100965.38;;;21.41;100.00
53514;BME280;39768;54.148;12.174;2022-09-09T16:52:39;100970.53;;;21.45;100.00
53514;BME280;39768;54.148;12.174;2022-09-09T16:56:42;100978.41;;;21.00;100.00
53514;BME280;39768;54.148;12.174;2022-09-09T17:00:44;100971.19;;;20.83;100.00
53514;BME280;39768;54.148;12.174;2022-09-09T17:04:47;100969.97;;;21.06;100.00
53514;BME280;39768;54.148;12.174;2022-09-09T17:08:56;100968.03;;;21.08;100.00
53514;BME280;39768;54.148;12.174;2022-09-09T17:12:58;100967.34;;;22.17;100.00
53514;BME280;39768;54.148;12.174;2022-09-09T17:17:00;100949.88;;;22.39;100.00
53514;BME280;39768;54.148;12.174;2022-09-09T17:21:23;100959.69;;;21.94;100.00
53514;BME280;39768;54.148;12.174;2022-09-09T17:25:26;100952.19;;;21.19;100.00
53514;BME280;39768;54.148;12.174;2022-09-09T17:29:27;100978.50;;;21.64;100.00
53514;BME280;39768;54.148;12.174;2022-09-09T17:33:29;100988.25;;;21.98;100.00
53514;BME280;39768;54.148;12.174;2022-09-09T17:37:34;100995.41;;;20.85;100.00
53514;BME280;39768;54.148;12.174;2022-09-09T17:41:38;100996.41;;;20.99;100.00
53514;BME280;39768;54.148;12.174;2022-09-09T17:45:40;100988.81;;;20.90;100.00
53514;BME280;39768;54.148;12.174;2022-09-09T17:49:41;100995.00;;;20.92;100.00
53514;BME280;39768;54.148;12.174;2022-09-09T17:53:48;100989.91;;;21.21;100.00
53514;BME280;39768;54.148;12.174;2022-09-09T17:57:50;100988.41;;;20.46;100.00
53514;BME280;39768;54.148;12.174;2022-09-09T18:01:51;100997.13;;;20.51;100.00
53514;BME280;39768;54.148;12.174;2022-09-09T18:05:59;101014.44;;;20.82;100.00
53514;BME280;39768;54.148;12.174;2022-09-09T18:10:01;101016.41;;;20.78;100.00
53514;BME280;39768;54.148;12.174;2022-09-09T18:14:03;101001.75;;;20.84;100.00
53514;BME280;39768;54.148;12.174;2022-09-09T18:18:05;100986.41;;;21.19;100.00
53514;BME280;39768;54.148;12.174;2022-09-09T18:22:07;100998.00;;;21.03;100.00
53514;BME280;39768;54.148;12.174;2022-09-09T18:26:10;100986.56;;;21.16;100.00
53514;BME280;39768;54.148;12.174;2022-09-09T18:30:12;100988.09;;;21.04;100.00
53514;BME280;39768;54.148;12.174;2022-09-09T18:34:16;100988.25;;;20.13;100.00
53514;BME280;39768;54.148;12.174;2022-09-09T18:38:18;100990.78;;;20.52;100.00
53514;BME280;39768;54.148;12.174;2022-09-09T18:42:19;100992.13;;;20.25;100.00
53514;BME280;39768;54.148;12.174;2022-09-09T18:46:22;101001.16;;;19.69;100.00
53514;BME280;39768;54.148;12.174;2022-09-09T18:50:24;101007.44;;;19.88;100.00
53514;BME280;39768;54.148;12.174;2022-09-09T18:54:28;101012.59;;;20.65;100.00
53514;BME280;39768;54.148;12.174;2022-09-09T18:58:30;101034.19;;;20.65;100.00
53514;BME280;39768;54.148;12.174;2022-09-09T19:02:32;101032.31;;;19.93;100.00
53514;BME280;39768;54.148;12.174;2022-09-09T19:06:38;101038.16;;;19.84;100.00
53514;BME280;39768;54.148;12.174;2022-09-09T19:10:40;101038.16;;;19.84;100.00
53514;BME280;39768;54.148;12.174;2022-09-09T19:14:42;101033.22;;;20.49;100.00
53514;BME280;39768;54.148;12.174;2022-09-09T19:18:44;101036.00;;;20.47;100.00
53514;BME280;39768;54.148;12.174;2022-09-09T19:22:48;101049.06;;;20.73;100.00
53514;BME280;39768;54.148;12.174;2022-09-09T19:26:52;101055.41;;;20.72;100.00
53514;BME280;39768;54.148;12.174;2022-09-09T19:30:54;101053.63;;;20.54;100.00
53514;BME280;39768;54.148;12.174;2022-09-09T19:34:56;101060.94;;;19.77;100.00
53514;BME280;39768;54.148;12.174;2022-09-09T19:38:58;101062.19;;;19.50;100.00
53514;BME280;39768;54.148;12.174;2022-09-09T19:43:00;101062.53;;;19.01;100.00
53514;BME280;39768;54.148;12.174;2022-09-09T19:47:02;101080.47;;;18.81;100.00
53514;BME280;39768;54.148;12.174;2022-09-09T19:51:08;101062.19;;;20.07;100.00
53514;BME280;39768;54.148;12.174;2022-09-09T19:55:10;101054.09;;;20.07;100.00
53514;BME280;39768;54.148;12.174;2022-09-09T19:59:12;101072.47;;;19.60;100.00
53514;BME280;39768;54.148;12.174;2022-09-09T20:03:14;101064.88;;;20.07;100.00
53514;BME280;39768;54.148;12.174;2022-09-09T20:07:20;101068.06;;;19.78;100.00
53514;BME280;39768;54.148;12.174;2022-09-09T20:11:22;101070.63;;;20.00;100.00
53514;BME280;39768;54.148;12.174;2022-09-09T20:15:24;101078.13;;;20.12;100.00
53514;BME280;39768;54.148;12.174;2022-09-09T20:19:25;101072.59;;;19.78;100.00
53514;BME280;39768;54.148;12.174;2022-09-09T20:23:27;101064.50;;;19.96;100.00
53514;BME280;39768;54.148;12.174;2022-09-09T20:27:29;101066.13;;;20.00;100.00
53514;BME280;39768;54.148;12.174;2022-09-09T20:31:33;101074.50;;;19.94;100.00
53514;BME280;39768;54.148;12.174;2022-09-09T20:35:40;101072.06;;;19.69;100.00
53514;BME280;39768;54.148;12.174;2022-09-09T20:39:42;101065.72;;;19.89;100.00
53514;BME280;39768;54.148;12.174;2022-09-09T20:43:47;101068.84;;;19.61;100.00
53514;BME280;39768;54.148;12.174;2022-09-09T20:47:49;101063.25;;;19.66;100.00
53514;BME280;39768;54.148;12.174;2022-09-09T20:51:52;101067.44;;;19.73;100.00
53514;BME280;39768;54.148;12.174;2022-09-09T20:55:58;101047.22;;;19.63;100.00
53514;BME280;39768;54.148;12.174;2022-09-09T21:00:00;101048.91;;;19.65;100.00
53514;BME280;39768;54.148;12.174;2022-09-09T21:04:01;101045.78;;;19.56;100.00
53514;BME280;39768;54.148;12.174;2022-09-09T21:08:03;101034.31;;;19.30;100.00
53514;BME280;39768;54.148;12.174;2022-09-09T21:12:04;101028.25;;;19.46;100.00
53514;BME280;39768;54.148;12.174;2022-09-09T21:16:09;101026.25;;;19.51;100.00
53514;BME280;39768;54.148;12.174;2022-09-09T21:20:12;101029.88;;;19.50;100.00
53514;BME280;39768;54.148;12.174;2022-09-09T21:24:14;101030.44;;;19.58;100.00
53514;BME280;39768;54.148;12.174;2022-09-09T21:28:16;101029.50;;;18.78;100.00
53514;BME280;39768;54.148;12.174;2022-09-09T21:32:18;101044.03;;;18.52;100.00
53514;BME280;39768;54.148;12.174;2022-09-09T21:36:20;101041.03;;;18.38;100.00
53514;BME280;39768;54.148;12.174;2022-09-09T21:40:22;101043.91;;;18.97;100.00
53514;BME280;39768;54.148;12.174;2022-09-09T21:44:23;101040.94;;;19.03;100.00
53514;BME280;39768;54.148;12.174;2022-09-09T21:48:26;101049.75;;;19.07;100.00
53514;BME280;39768;54.148;12.174;2022-09-09T21:52:28;101050.69;;;19.06;100.00
53514;BME280;39768;54.148;12.174;2022-09-09T21:56:29;101052.19;;;18.92;100.00
53514;BME280;39768;54.148;12.174;2022-09-09T22:00:31;101051.38;;;18.90;100.00
53514;BME280;39768;54.148;12.174;2022-09-09T22:04:35;101049.22;;;18.98;100.00
53514;BME280;39768;54.148;12.174;2022-09-09T22:08:36;101053.25;;;18.88;100.00